EDT,Max TemperatureF,Mean TemperatureF,Min TemperatureF,Max Dew PointF,MeanDew PointF,Min DewpointF,Max Humidity, Mean Humidity, Min Humidity, Max Sea Level PressureIn, Mean Sea Level PressureIn, Min Sea Level PressureIn, Max VisibilityMiles, Mean VisibilityMiles, Min VisibilityMiles, Max Wind SpeedMPH, Mean Wind SpeedMPH, Max Gust SpeedMPH,PrecipitationIn, CloudCover, Events, WindDirDegrees
2012-9-1,78,74,68,70,67,64,88,76,61,30.11,30.03,29.97,10,10,8,16,6,,0.00,0,,112
2012-9-2,75,72,68,66,65,61,94,76,65,30.13,30.10,30.07,10,10,10,9,4,,0.00,2,,148
2012-9-3,71,70,68,66,63,61,94,78,69,30.22,30.19,30.15,10,10,10,16,7,,0.00,3,,109
2012-9-4,75,74,73,73,72,66,94,92,78,30.10,30.01,29.94,10,8,3,12,8,,0.00,8,Rain,190
2012-9-5,78,76,75,75,73,72,94,92,89,29.84,29.82,29.80,10,8,6,16,12,22,0.00,7,Rain,233
2012-9-6,73,70,68,70,69,66,94,90,83,29.93,29.91,29.89,10,10,10,8,4,,0.00,4,,127
2012-9-7,78,74,69,73,72,70,100,89,78,29.96,29.95,29.93,8,6,0,14,5,,0.00,4,Fog,226
2012-9-8,78,76,73,73,73,72,94,86,83,29.88,29.79,29.68,10,10,8,21,18,29,0.00,4,,192
2012-9-9,73,68,64,61,58,50,88,69,46,29.88,29.85,29.82,10,10,10,12,2,,0.00,2,,342
2012-9-10,69,66,64,55,51,46,73,55,43,29.98,29.96,29.95,10,10,10,18,15,24,0.00,1,,332
2012-9-11,68,64,59,52,48,46,77,57,46,30.27,30.25,30.23,10,10,10,12,7,,0.00,1,,330
2012-9-12,71,64,57,63,59,54,88,71,57,30.38,30.37,30.36,10,10,10,12,7,,0.00,0,,226
2012-9-13,73,65,57,63,61,55,94,72,65,30.41,30.38,30.32,10,10,10,14,7,,0.00,0,,218
2012-9-14,73,63,53,64,62,52,94,78,69,30.29,30.23,30.17,10,10,10,14,6,,0.00,0,,211
2012-9-15,71,65,59,63,54,48,94,64,46,30.11,30.08,30.05,10,10,10,18,8,,0.00,1,,331
2012-9-16,69,60,51,54,50,46,82,59,46,30.13,30.10,30.06,10,10,10,14,6,,0.00,1,,303
2012-9-17,71,60,48,57,53,46,93,65,46,30.14,30.11,30.09,10,10,10,12,3,,0.00,0,,238
2012-9-18,75,72,69,70,68,64,88,84,78,30.01,29.91,29.80,10,9,7,22,15,30,0.00,7,,175
2012-9-19,69,64,60,55,50,48,82,60,46,30.15,30.05,29.92,10,10,10,12,7,,0.00,2,,342
2012-9-20,66,62,59,55,54,54,82,72,68,30.23,30.20,30.16,10,10,10,14,7,24,0.00,1,,107
2012-9-21,66,62,57,57,55,54,94,80,68,30.15,30.12,30.07,10,10,10,9,5,,0.00,0,,64
2012-9-22,69,60,50,64,58,48,94,82,73,30.02,29.96,29.90,10,10,10,14,5,,0.00,0,,159
2012-9-23,68,64,55,59,49,45,88,59,43,30.09,30.04,29.96,10,10,10,16,9,,0.00,0,,327
2012-9-24,64,54,44,54,45,43,93,61,45,30.17,30.14,30.12,10,10,10,14,5,,0.00,1,,323
2012-9-25,69,58,48,54,51,45,87,61,52,30.23,30.21,30.20,10,10,10,21,11,31,0.00,0,,242
2012-9-26,71,68,66,66,64,61,88,82,78,30.14,30.11,30.07,10,10,8,21,12,,0.00,5,,217
2012-9-27,71,68,64,64,62,61,94,83,69,30.19,30.16,30.13,10,10,8,7,4,,0.00,4,,330
2012-9-28,84,74,64,66,63,55,94,83,55,30.17,30.05,29.98,10,7,3,17,13,28,0.00,8,,152
2012-9-29,59,59,59,57,57,55,94,93,88,29.94,29.92,29.89,10,7,3,4,1,,0.00,8,,-1
2012-9-30,62,60,55,57,56,52,94,86,77,29.89,29.82,29.78,10,9,8,12,2,,0.00,6,Rain,198